Wetterverlauf

Letzte Wetterlage 20.08.2014 20:04
Wetterdiagramm
Tabellarische Darstellung
Datum Temperatur Windchill Feuchte Luftdruck Windrichtung Windstärke Niederschlag
20.08.2014 20:19 13,7 °C 13,7 °C 66 % -- 0.0 0,00 mm
20.08.2014 20:04 14,1 °C 14,1 °C 65 % -- 0.0 0,00 mm
20.08.2014 19:49 14,5 °C 14,5 °C 64 % -- 0.0 0,00 mm
20.08.2014 19:34 14,9 °C 14,9 °C 63 % -- 0.0 0,00 mm
20.08.2014 19:19 15,2 °C 15,2 °C 62 % -- 0.0 0,00 mm
20.08.2014 19:04 15,3 °C 15,3 °C 61 % -- 0.0 0,00 mm
20.08.2014 18:49 15,7 °C 15,7 °C 61 % -- 0.0 0,00 mm
20.08.2014 18:34 16,2 °C 16,2 °C 61 % -- 0.3 0,00 mm
20.08.2014 18:19 16,6 °C 16,6 °C 60 % -- 0.5 0,00 mm
20.08.2014 18:04 16,6 °C 16,6 °C 60 % -- 0.1 0,00 mm
20.08.2014 17:49 16,6 °C 16,6 °C 59 % -- 0.1 0,00 mm
20.08.2014 17:34 17,6 °C 17,6 °C 55 % -- 0.3 0,00 mm
20.08.2014 17:19 18,3 °C 18,3 °C 54 % -- 0.0 0,00 mm
20.08.2014 17:04 18,3 °C 18,3 °C 53 % -- 0.0 0,00 mm
20.08.2014 16:49 18,2 °C 18,2 °C 53 % -- 0.0 0,00 mm
20.08.2014 16:34 19,1 °C 19,1 °C 51 % -- 0.0 0,00 mm
20.08.2014 16:19 19,2 °C 19,2 °C 52 % -- 0.0 0,00 mm
20.08.2014 16:04 18,6 °C 18,6 °C 52 % -- 0.0 0,00 mm
20.08.2014 15:49 18,5 °C 18,5 °C 53 % -- 0.0 0,00 mm
20.08.2014 15:34 18,9 °C 18,9 °C 52 % -- 0.0 0,00 mm
20.08.2014 15:19 19,2 °C 19,2 °C 52 % -- 0.0 0,00 mm
20.08.2014 15:04 18,5 °C 18,5 °C 51 % -- 0.0 0,00 mm
20.08.2014 14:49 19,0 °C 19,0 °C 50 % -- 0.0 0,00 mm
20.08.2014 14:34 19,6 °C 19,6 °C 50 % -- 0.0 0,00 mm
20.08.2014 14:19 18,9 °C 18,9 °C 51 % -- 0.0 0,00 mm
Empfehlen Sie wetter.com
| Mehr
Neue Wetterwarnung

Neue Niederschlagsmeldung
Neue Meldung
Regen Liveticker
    sehr starker Regen/Gewitter
    starker Regen/Gewitter
    mäßiger bis starker Regen
    mäßiger Regen
    leichter bis mäßiger Regen
    kein Regen